createdAt,value
2019-03-20T00:00:59.964Z,11.07
2019-03-20T00:03:28.671Z,9.60
2019-03-20T00:05:57.207Z,10.07
2019-03-20T00:08:25.767Z,10.53
2019-03-20T00:10:54.390Z,12.47
2019-03-20T00:13:22.992Z,11.27
2019-03-20T00:15:51.698Z,10.30
2019-03-20T00:18:20.364Z,10.70
2019-03-20T00:20:48.766Z,10.63
2019-03-20T00:23:17.507Z,11.03
2019-03-20T00:25:46.241Z,10.60
2019-03-20T00:28:14.732Z,10.40
2019-03-20T00:30:43.443Z,11.00
2019-03-20T00:33:12.292Z,11.10
2019-03-20T00:35:41.070Z,11.53
2019-03-20T00:38:09.832Z,11.57
2019-03-20T00:40:38.483Z,10.90
2019-03-20T00:43:07.202Z,11.60
2019-03-20T00:45:36.047Z,10.63
2019-03-20T00:48:05.297Z,11.80
2019-03-20T00:50:33.817Z,12.60
2019-03-20T00:53:03.643Z,11.77
2019-03-20T00:55:32.356Z,11.93
2019-03-20T00:58:01.088Z,12.20
2019-03-20T01:00:30.088Z,13.57
2019-03-20T01:02:58.899Z,12.97
2019-03-20T01:05:27.640Z,11.83
2019-03-20T01:07:57.408Z,11.70
2019-03-20T01:10:26.139Z,11.47
2019-03-20T01:12:55.023Z,11.83
2019-03-20T01:15:23.950Z,11.13
2019-03-20T01:17:52.770Z,10.87
2019-03-20T01:20:21.464Z,10.90
2019-03-20T01:22:50.393Z,10.53
2019-03-20T01:25:19.233Z,11.00
2019-03-20T01:27:47.992Z,10.53
2019-03-20T01:30:36.593Z,10.50
2019-03-20T01:33:06.962Z,9.87
2019-03-20T01:35:35.860Z,9.80
2019-03-20T01:38:05.147Z,9.80
2019-03-20T01:40:33.988Z,8.63
2019-03-20T01:43:02.724Z,9.77
2019-03-20T01:45:31.407Z,9.13
2019-03-20T01:48:00.226Z,9.17
2019-03-20T01:50:29.256Z,9.70
2019-03-20T01:52:58.032Z,9.17
2019-03-20T01:55:26.742Z,9.17
2019-03-20T01:57:55.460Z,9.30
2019-03-20T02:00:24.111Z,9.73
2019-03-20T02:02:52.721Z,9.03
2019-03-20T02:05:21.360Z,9.53
2019-03-20T02:07:50.026Z,9.50
2019-03-20T02:10:18.906Z,9.10
2019-03-20T02:12:47.555Z,8.80
2019-03-20T02:15:16.123Z,9.50
2019-03-20T02:17:44.981Z,9.10
2019-03-20T02:20:15.052Z,9.53
2019-03-20T02:22:43.862Z,10.27
2019-03-20T02:25:15.579Z,9.07
2019-03-20T02:27:44.405Z,8.93
2019-03-20T02:30:15.038Z,7.90
2019-03-20T02:32:44.822Z,8.53
2019-03-20T02:35:13.583Z,8.97
2019-03-20T02:37:42.353Z,9.10
2019-03-20T02:40:11.543Z,8.83
2019-03-20T02:42:40.231Z,8.23
2019-03-20T02:45:11.091Z,9.27
2019-03-20T02:47:39.732Z,10.00
2019-03-20T02:50:08.567Z,8.27
2019-03-20T02:52:37.244Z,9.20
2019-03-20T02:55:07.482Z,8.73
2019-03-20T02:57:36.154Z,9.07
2019-03-20T03:00:06.493Z,12.80
2019-03-20T03:02:35.560Z,8.87
2019-03-20T03:05:04.908Z,8.93
2019-03-20T03:07:33.555Z,8.00
2019-03-20T03:10:05.292Z,8.27
2019-03-20T03:12:34.029Z,8.13
2019-03-20T03:15:04.612Z,8.13
2019-03-20T03:17:33.723Z,7.70
2019-03-20T03:20:02.579Z,8.03
2019-03-20T03:22:31.233Z,8.00
2019-03-20T03:24:59.972Z,8.10
2019-03-20T03:27:28.608Z,8.03
2019-03-20T03:29:57.154Z,7.70
2019-03-20T03:32:25.721Z,8.10
2019-03-20T03:34:54.326Z,9.47
2019-03-20T03:37:23.130Z,10.00
2019-03-20T03:39:51.807Z,8.90
2019-03-20T03:42:20.333Z,8.07
2019-03-20T03:44:50.010Z,9.40
2019-03-20T03:47:18.733Z,9.63
2019-03-20T03:49:47.178Z,10.00
2019-03-20T03:52:15.783Z,10.40
2019-03-20T03:54:44.418Z,10.63
2019-03-20T03:57:13.171Z,10.33
2019-03-20T03:59:41.652Z,11.40
2019-03-20T04:02:10.422Z,10.63
2019-03-20T04:04:39.097Z,10.67
2019-03-20T04:07:07.790Z,12.00
2019-03-20T04:09:36.395Z,10.77
2019-03-20T04:12:06.186Z,11.17
2019-03-20T04:14:34.801Z,11.80
2019-03-20T04:17:25.144Z,12.93
2019-03-20T04:19:53.712Z,11.73
2019-03-20T04:22:23.433Z,11.80
2019-03-20T04:24:52.123Z,14.40
2019-03-20T04:27:20.920Z,11.73
2019-03-20T04:29:49.660Z,12.33
2019-03-20T04:32:18.438Z,12.20
2019-03-20T04:34:47.034Z,12.20
2019-03-20T04:37:16.317Z,12.07
2019-03-20T04:39:45.164Z,12.37
2019-03-20T04:42:13.705Z,13.20
2019-03-20T04:44:43.878Z,12.67
2019-03-20T04:47:15.116Z,12.07
2019-03-20T04:49:43.636Z,11.60
2019-03-20T04:52:12.223Z,11.13
2019-03-20T04:54:40.928Z,10.57
2019-03-20T04:57:09.472Z,10.57
2019-03-20T04:59:37.977Z,10.83
2019-03-20T05:02:06.700Z,10.00
2019-03-20T05:04:36.141Z,12.37
2019-03-20T05:07:04.818Z,10.50
2019-03-20T05:09:33.421Z,11.57
2019-03-20T05:12:02.105Z,11.07
2019-03-20T05:14:31.848Z,11.40
2019-03-20T05:17:00.352Z,10.37
2019-03-20T05:19:28.825Z,10.13
2019-03-20T05:21:57.476Z,10.80
2019-03-20T05:24:26.106Z,11.33
2019-03-20T05:26:54.810Z,11.60
2019-03-20T05:29:23.473Z,12.23
2019-03-20T05:31:52.181Z,10.77
2019-03-20T05:34:20.913Z,10.27
2019-03-20T05:36:50.552Z,13.63
2019-03-20T05:39:19.252Z,11.03
2019-03-20T05:41:47.877Z,10.20
2019-03-20T05:44:16.620Z,10.57
2019-03-20T05:46:45.101Z,13.60
2019-03-20T05:49:13.827Z,9.90
2019-03-20T05:51:42.455Z,10.80
2019-03-20T05:54:11.250Z,10.20
2019-03-20T05:56:39.785Z,9.77
2019-03-20T05:59:08.536Z,13.10
2019-03-20T06:01:37.081Z,9.70
2019-03-20T06:04:05.981Z,14.37
2019-03-20T06:06:34.601Z,7.77
2019-03-20T06:09:04.310Z,13.77
2019-03-20T06:11:32.866Z,10.90
2019-03-20T06:14:01.478Z,12.97
2019-03-20T06:16:31.019Z,8.83
2019-03-20T06:19:01.822Z,10.97
2019-03-20T06:21:31.820Z,9.87
2019-03-20T06:24:00.601Z,14.37
2019-03-20T06:26:29.254Z,12.80
2019-03-20T06:28:58.033Z,8.57
2019-03-20T06:31:26.754Z,9.00
2019-03-20T06:33:55.542Z,8.60
2019-03-20T06:36:24.275Z,8.30
2019-03-20T06:38:52.919Z,5.87
2019-03-20T06:41:21.702Z,5.70
2019-03-20T06:43:50.509Z,7.87
2019-03-20T06:46:19.309Z,7.22
2019-03-20T06:48:48.013Z,7.50
2019-03-20T06:51:16.778Z,6.77
2019-03-20T06:53:45.234Z,9.43
2019-03-20T06:56:13.769Z,7.43
2019-03-20T06:58:42.286Z,6.97
2019-03-20T07:01:22.094Z,7.77
2019-03-20T07:04:24.698Z,8.07
2019-03-20T07:07:01.526Z,6.13
2019-03-20T07:10:04.113Z,5.30
2019-03-20T07:12:32.810Z,5.00
2019-03-20T07:15:01.689Z,5.57
2019-03-20T07:17:30.285Z,7.03
2019-03-20T07:19:58.928Z,8.13
2019-03-20T07:22:27.765Z,5.43
2019-03-20T07:24:56.313Z,5.97
2019-03-20T07:27:24.855Z,8.00
2019-03-20T07:29:53.575Z,7.87
2019-03-20T07:32:22.130Z,4.70
2019-03-20T07:34:50.733Z,6.13
2019-03-20T07:37:19.866Z,6.63
2019-03-20T07:39:48.569Z,6.70
2019-03-20T07:42:17.023Z,6.77
2019-03-20T07:44:45.613Z,5.53
2019-03-20T07:47:14.119Z,6.97
2019-03-20T07:49:42.727Z,4.70
2019-03-20T07:52:11.229Z,7.17
2019-03-20T07:54:39.731Z,5.70
2019-03-20T07:57:08.270Z,8.20
2019-03-20T07:59:36.850Z,5.17
2019-03-20T08:02:05.622Z,4.60
2019-03-20T08:04:34.274Z,5.30
2019-03-20T08:07:02.852Z,5.00
2019-03-20T08:09:31.433Z,4.67
2019-03-20T08:12:00.100Z,6.00
2019-03-20T08:14:28.518Z,9.30
2019-03-20T08:16:58.275Z,6.33
2019-03-20T08:19:26.982Z,7.37
2019-03-20T08:21:55.642Z,4.70
2019-03-20T08:24:24.310Z,6.90
2019-03-20T08:26:52.943Z,5.00
2019-03-20T08:29:21.712Z,5.47
2019-03-20T08:31:50.312Z,7.80
2019-03-20T08:34:18.908Z,7.30
2019-03-20T08:36:47.906Z,5.27
2019-03-20T08:39:16.644Z,7.50
2019-03-20T08:41:45.337Z,4.57
2019-03-20T08:44:14.117Z,7.13
2019-03-20T08:46:42.947Z,5.47
2019-03-20T08:49:11.522Z,7.77
2019-03-20T08:51:40.075Z,5.00
2019-03-20T08:54:08.650Z,7.43
2019-03-20T08:56:37.278Z,6.33
2019-03-20T08:59:06.027Z,6.60
2019-03-20T09:01:34.651Z,8.03
2019-03-20T09:04:03.353Z,5.00
2019-03-20T09:06:31.852Z,5.33
2019-03-20T09:09:00.549Z,6.23
2019-03-20T09:11:29.192Z,13.40
2019-03-20T09:13:57.966Z,5.03
2019-03-20T09:16:27.387Z,6.93
2019-03-20T09:18:56.109Z,4.93
2019-03-20T09:21:24.610Z,6.63
2019-03-20T09:23:53.109Z,6.10
2019-03-20T09:26:21.770Z,6.37
2019-03-20T09:28:50.554Z,6.00
2019-03-20T09:31:19.068Z,4.33
2019-03-20T09:33:47.870Z,4.13
2019-03-20T09:36:16.793Z,5.97
2019-03-20T09:38:45.364Z,7.43
2019-03-20T09:41:13.820Z,5.30
2019-03-20T09:43:42.535Z,7.03
2019-03-20T09:46:11.120Z,4.60
2019-03-20T09:48:39.859Z,5.30
2019-03-20T09:51:08.772Z,5.97
2019-03-20T09:53:37.588Z,7.73
2019-03-20T09:56:06.189Z,4.70
2019-03-20T09:58:35.013Z,5.97
2019-03-20T10:01:03.874Z,4.73
2019-03-20T10:03:32.456Z,5.00
2019-03-20T10:06:01.199Z,4.77
2019-03-20T10:08:29.804Z,5.67
2019-03-20T10:10:58.691Z,5.77
2019-03-20T10:13:27.452Z,6.50
2019-03-20T10:15:56.173Z,5.13
2019-03-20T10:18:25.833Z,5.83
2019-03-20T10:20:54.607Z,5.23
2019-03-20T10:23:23.315Z,6.20
2019-03-20T10:25:51.955Z,6.77
2019-03-20T10:28:20.538Z,4.10
2019-03-20T10:30:49.107Z,5.27
2019-03-20T10:33:17.971Z,5.93
2019-03-20T10:35:50.430Z,5.47
2019-03-20T10:39:21.362Z,4.60
2019-03-20T10:41:50.071Z,4.40
2019-03-20T10:44:18.691Z,4.63
2019-03-20T10:46:47.266Z,5.93
2019-03-20T10:49:15.822Z,6.20
2019-03-20T10:51:44.470Z,7.73
2019-03-20T10:54:13.013Z,6.40
2019-03-20T10:56:41.501Z,6.43
2019-03-20T10:59:10.081Z,4.93
2019-03-20T11:01:42.797Z,6.03
2019-03-20T11:04:09.212Z,5.20
2019-03-20T11:06:37.717Z,4.37
2019-03-20T11:09:17.834Z,9.08
2019-03-20T11:11:38.935Z,5.00
2019-03-20T11:14:07.488Z,12.17
2019-03-20T11:16:36.206Z,6.97
2019-03-20T11:19:06.158Z,5.15
2019-03-20T11:21:34.942Z,6.70
2019-03-20T11:24:03.774Z,7.27
2019-03-20T11:26:32.552Z,5.43
2019-03-20T11:29:01.198Z,4.90
2019-03-20T11:31:30.041Z,4.73
2019-03-20T11:33:58.834Z,6.50
2019-03-20T11:36:27.424Z,7.63
2019-03-20T11:38:56.344Z,8.07
2019-03-20T11:41:25.128Z,5.63
2019-03-20T11:43:53.739Z,5.30
2019-03-20T11:46:22.465Z,6.73
2019-03-20T11:48:51.252Z,5.70
2019-03-20T11:51:19.668Z,7.00
2019-03-20T11:53:48.300Z,5.30
2019-03-20T11:56:17.092Z,6.83
2019-03-20T11:58:45.721Z,8.73
2019-03-20T12:01:14.192Z,6.70
2019-03-20T12:03:42.804Z,10.10
2019-03-20T12:06:11.385Z,5.97
2019-03-20T12:08:40.087Z,5.53
2019-03-20T12:11:08.722Z,6.20
2019-03-20T12:13:37.558Z,7.53
2019-03-20T12:16:06.347Z,5.30
2019-03-20T12:18:35.073Z,5.37
2019-03-20T12:21:04.172Z,6.58
2019-03-20T12:23:33.831Z,5.70
2019-03-20T12:26:03.124Z,5.50
2019-03-20T12:28:31.707Z,5.35
2019-03-20T12:31:00.657Z,5.83
2019-03-20T12:33:29.512Z,5.90
2019-03-20T12:35:58.127Z,4.73
2019-03-20T12:38:27.453Z,5.63
2019-03-20T12:40:56.615Z,5.67
2019-03-20T12:43:25.717Z,6.10
2019-03-20T12:45:54.493Z,6.17
2019-03-20T12:48:23.366Z,4.97
2019-03-20T12:50:52.164Z,6.00
2019-03-20T12:53:23.276Z,5.03
2019-03-20T12:55:52.226Z,6.40
2019-03-20T12:58:20.984Z,5.20
2019-03-20T13:03:17.838Z,5.40
2019-03-20T13:05:46.775Z,5.17
2019-03-20T13:08:15.902Z,6.93
2019-03-20T13:10:52.735Z,5.12
2019-03-20T13:13:21.696Z,6.73
2019-03-20T13:15:50.417Z,8.97
2019-03-20T13:18:19.311Z,7.80
2019-03-20T13:20:49.302Z,6.60
2019-03-20T13:23:20.622Z,5.57
2019-03-20T13:25:49.598Z,6.90
2019-03-20T13:28:19.752Z,5.80
2019-03-20T13:30:53.521Z,6.17
2019-03-20T13:33:26.077Z,5.20
2019-03-20T13:35:52.947Z,7.23
2019-03-20T13:38:22.822Z,9.25
2019-03-20T13:40:51.740Z,5.97
2019-03-20T13:43:20.874Z,5.67
2019-03-20T13:45:51.782Z,5.53
2019-03-20T13:48:20.896Z,6.67
2019-03-20T13:50:50.830Z,7.73
2019-03-20T13:53:25.615Z,6.27
2019-03-20T13:55:54.375Z,6.33
2019-03-20T13:58:23.356Z,5.63
2019-03-20T14:00:52.366Z,6.43
2019-03-20T14:03:23.264Z,5.90
2019-03-20T14:05:55.781Z,6.70
2019-03-20T14:08:24.589Z,7.40
2019-03-20T14:10:53.633Z,5.30
2019-03-20T14:13:22.542Z,7.53
2019-03-20T14:15:51.707Z,9.10
2019-03-20T14:18:22.556Z,5.57
2019-03-20T14:20:57.701Z,6.90
2019-03-20T14:23:27.577Z,5.77
2019-03-20T14:25:57.575Z,7.70
2019-03-20T14:28:26.622Z,7.87
2019-03-20T14:30:55.300Z,6.53
2019-03-20T14:33:24.190Z,6.33
2019-03-20T14:36:24.885Z,5.30
2019-03-20T14:39:26.289Z,8.33
2019-03-20T14:42:13.822Z,5.30
2019-03-20T14:45:29.858Z,5.37
2019-03-20T14:47:58.921Z,6.47
2019-03-20T14:50:27.626Z,6.23
2019-03-20T14:52:57.397Z,5.67
2019-03-20T14:55:26.335Z,5.27
2019-03-20T14:57:55.235Z,5.60
2019-03-20T15:00:26.504Z,6.40
2019-03-20T15:03:01.602Z,4.83
2019-03-20T15:05:30.619Z,8.90
2019-03-20T15:08:02.305Z,5.80
2019-03-20T15:10:33.297Z,5.67
2019-03-20T15:13:08.417Z,5.80
2019-03-20T15:15:44.628Z,5.90
2019-03-20T15:18:15.960Z,7.00
2019-03-20T15:20:44.798Z,5.00
2019-03-20T15:23:15.528Z,5.37
2019-03-20T15:25:44.273Z,5.00
2019-03-20T15:28:13.038Z,6.60
2019-03-20T15:30:41.819Z,5.70
2019-03-20T15:33:10.433Z,5.37
2019-03-20T15:35:42.379Z,4.63
2019-03-20T15:38:12.224Z,5.73
2019-03-20T15:40:41.033Z,5.50
2019-03-20T15:43:09.638Z,4.80
2019-03-20T15:45:38.375Z,5.70
2019-03-20T15:48:13.148Z,4.77
2019-03-20T15:50:42.594Z,7.60
2019-03-20T15:53:17.969Z,5.13
2019-03-20T15:55:47.644Z,5.73
2019-03-20T15:58:20.770Z,5.93
2019-03-20T16:00:50.619Z,8.90
2019-03-20T16:03:31.614Z,5.93
2019-03-20T16:06:00.348Z,7.47
2019-03-20T16:08:29.169Z,5.13
2019-03-20T16:11:06.212Z,7.70
2019-03-20T16:13:28.838Z,6.77
2019-03-20T16:15:57.599Z,9.03
2019-03-20T16:18:29.683Z,8.00
2019-03-20T16:20:59.214Z,5.97
2019-03-20T16:23:28.065Z,5.70
2019-03-20T16:25:56.665Z,5.43
2019-03-20T16:28:25.606Z,4.87
2019-03-20T16:30:54.631Z,6.73
2019-03-20T16:33:23.950Z,5.90
2019-03-20T16:35:52.601Z,6.87
2019-03-20T16:38:25.477Z,6.87
2019-03-20T16:40:55.137Z,6.10
2019-03-20T16:43:36.286Z,6.67
2019-03-20T16:46:08.120Z,6.70
2019-03-20T16:48:38.313Z,10.33
2019-03-20T16:51:12.697Z,6.93
2019-03-20T16:53:42.163Z,6.57
2019-03-20T16:56:16.793Z,6.43
2019-03-20T16:58:45.890Z,7.33
2019-03-20T17:01:21.374Z,5.63
2019-03-20T17:03:50.781Z,7.07
2019-03-20T17:06:19.382Z,6.07
2019-03-20T17:08:57.708Z,6.60
2019-03-20T17:11:37.738Z,8.63
2019-03-20T17:13:56.778Z,11.87
2019-03-20T17:16:25.721Z,13.70
2019-03-20T17:18:54.534Z,13.77
2019-03-20T17:21:23.151Z,17.13
2019-03-20T17:23:52.738Z,9.70
2019-03-20T17:26:27.099Z,8.60
2019-03-20T17:28:55.761Z,12.40
2019-03-20T17:31:28.000Z,8.43
2019-03-20T17:33:58.432Z,7.57
2019-03-20T17:36:30.325Z,12.57
2019-03-20T17:38:59.647Z,9.33
2019-03-20T17:41:36.845Z,8.53
2019-03-20T17:44:07.320Z,10.43
2019-03-20T17:46:36.290Z,12.67
2019-03-20T17:49:05.023Z,11.00
2019-03-20T17:51:33.673Z,8.87
2019-03-20T17:54:02.540Z,13.30
2019-03-20T17:56:31.311Z,14.90
2019-03-20T17:58:59.992Z,11.83
2019-03-20T18:01:28.887Z,9.10
2019-03-20T18:03:57.633Z,9.50
2019-03-20T18:06:26.326Z,13.03
2019-03-20T18:08:54.784Z,12.63
2019-03-20T18:11:30.216Z,10.53
2019-03-20T18:13:58.903Z,10.70
2019-03-20T18:16:30.920Z,9.03
2019-03-20T18:18:59.658Z,7.23
2019-03-20T18:21:34.419Z,6.90
2019-03-20T18:24:03.998Z,10.13
2019-03-20T18:26:35.281Z,11.50
2019-03-20T18:29:04.549Z,15.83
2019-03-20T18:31:33.976Z,18.93
2019-03-20T18:34:19.688Z,16.87
2019-03-20T18:37:58.646Z,13.03
2019-03-20T18:40:28.299Z,16.57
2019-03-20T18:42:57.175Z,14.57
2019-03-20T18:45:29.572Z,15.20
2019-03-20T18:47:58.343Z,12.50
2019-03-20T18:50:27.020Z,11.80
2019-03-20T18:52:55.926Z,11.53
2019-03-20T18:55:24.537Z,12.20
2019-03-20T18:57:53.364Z,13.53
2019-03-20T19:00:23.903Z,12.83
2019-03-20T19:02:53.444Z,15.20
2019-03-20T19:05:25.492Z,14.87
2019-03-20T19:07:54.319Z,16.57
2019-03-20T19:10:28.805Z,17.10
2019-03-20T19:12:57.898Z,16.17
2019-03-20T19:15:28.330Z,13.53
2019-03-20T19:17:57.224Z,15.30
2019-03-20T19:20:25.924Z,15.20
2019-03-20T19:22:54.603Z,19.37
2019-03-20T19:25:23.524Z,19.13
2019-03-20T19:27:52.087Z,23.40
2019-03-20T19:30:20.890Z,29.00
2019-03-20T19:32:49.638Z,30.73
2019-03-20T19:35:18.669Z,19.30
2019-03-20T19:37:47.388Z,24.63
2019-03-20T19:40:16.292Z,19.43
2019-03-20T19:42:44.961Z,17.03
2019-03-20T19:45:13.889Z,12.27
2019-03-20T19:47:42.676Z,10.40
2019-03-20T19:50:12.658Z,12.20
2019-03-20T19:52:43.075Z,11.07
2019-03-20T19:55:12.097Z,10.07
2019-03-20T19:57:41.107Z,12.47
2019-03-20T20:00:12.604Z,9.63
2019-03-20T20:02:41.304Z,10.43
2019-03-20T20:05:15.716Z,12.90
2019-03-20T20:07:40.479Z,12.23
2019-03-20T20:10:09.760Z,11.10
2019-03-20T20:12:38.388Z,12.13
2019-03-20T20:15:12.922Z,17.00
2019-03-20T20:17:41.453Z,14.10
2019-03-20T20:20:12.136Z,11.10
2019-03-20T20:22:41.875Z,12.57
2019-03-20T20:25:10.622Z,11.67
2019-03-20T20:27:39.463Z,12.87
2019-03-20T20:30:10.901Z,10.70
2019-03-20T20:32:39.338Z,11.37
2019-03-20T20:35:08.376Z,12.20
2019-03-20T20:37:38.147Z,12.73
2019-03-20T20:40:09.044Z,12.87
2019-03-20T20:42:42.889Z,13.40
2019-03-20T20:45:09.511Z,15.37
2019-03-20T20:47:38.232Z,16.43
2019-03-20T20:50:07.127Z,15.20
2019-03-20T20:52:35.827Z,12.83
2019-03-20T20:55:05.196Z,15.33
2019-03-20T20:57:33.854Z,14.73
2019-03-20T21:00:02.572Z,16.80
2019-03-20T21:02:31.412Z,15.73
2019-03-20T21:05:00.267Z,12.30
2019-03-20T21:07:29.108Z,12.53
2019-03-20T21:09:57.634Z,12.13
2019-03-20T21:12:26.235Z,12.90
2019-03-20T21:14:54.876Z,10.87
2019-03-20T21:17:30.736Z,9.93
2019-03-20T21:19:59.993Z,9.47
2019-03-20T21:23:27.865Z,8.80
2019-03-20T21:25:58.872Z,9.67
2019-03-20T21:29:16.675Z,9.67
2019-03-20T21:31:56.587Z,12.03
2019-03-20T21:35:09.885Z,10.40
2019-03-20T21:38:07.459Z,9.40
2019-03-20T21:41:00.505Z,8.67
2019-03-20T21:44:07.625Z,9.47
2019-03-20T21:47:20.614Z,8.90
2019-03-20T21:49:50.007Z,10.63
2019-03-20T21:52:19.129Z,9.03
2019-03-20T21:55:28.281Z,10.90
2019-03-20T21:58:23.931Z,9.57
2019-03-20T22:01:42.781Z,9.50
2019-03-20T22:04:12.777Z,12.73
2019-03-20T22:07:17.109Z,8.77
2019-03-20T22:10:38.086Z,8.07
2019-03-20T22:13:19.015Z,9.00
2019-03-20T22:16:00.128Z,10.00
2019-03-20T22:19:16.340Z,8.43
2019-03-20T22:22:36.925Z,9.33
2019-03-20T22:25:45.653Z,7.20
2019-03-20T22:28:50.279Z,8.70
2019-03-20T22:31:19.874Z,8.87
2019-03-20T22:34:24.774Z,9.23
2019-03-20T22:36:54.131Z,7.27
2019-03-20T22:40:02.953Z,8.87
2019-03-20T22:43:02.447Z,11.60
2019-03-20T22:46:27.638Z,13.10
2019-03-20T22:49:09.763Z,8.93
2019-03-20T22:51:53.980Z,8.73
2019-03-20T22:55:05.601Z,7.43
2019-03-20T22:58:15.634Z,8.97
2019-03-20T23:00:46.019Z,8.77
2019-03-20T23:03:21.201Z,6.83
2019-03-20T23:05:51.451Z,6.87
2019-03-20T23:08:20.571Z,6.87
2019-03-20T23:10:50.682Z,7.50
2019-03-20T23:13:19.787Z,7.90
2019-03-20T23:15:49.347Z,8.10
2019-03-20T23:18:18.775Z,7.17
2019-03-20T23:20:48.132Z,7.83
2019-03-20T23:23:17.441Z,5.73
2019-03-20T23:25:46.807Z,8.43
2019-03-20T23:28:15.985Z,5.67
2019-03-20T23:30:45.250Z,8.10
2019-03-20T23:33:14.318Z,8.17
2019-03-20T23:35:43.405Z,7.80
2019-03-20T23:38:12.741Z,5.83
2019-03-20T23:40:41.941Z,7.37
2019-03-20T23:43:11.691Z,8.53
2019-03-20T23:45:40.807Z,6.03
2019-03-20T23:48:26.885Z,7.13
2019-03-20T23:50:59.955Z,6.07
2019-03-20T23:53:29.227Z,6.83
2019-03-20T23:55:58.276Z,5.53
2019-03-20T23:58:27.554Z,9.80
